• Join FlightAware (Why Join?)
  • Login
  • US Flag 
Trick or treat! (Boo!!) 
01:38AM EDT


 

Airport Tracker/Info


-or-


 

Live Flight TrackerFlight Track Log ✈ UAL4295 ✈ 26-Aug-2014 ✈ KROC - KORD

Flight Track Log - Related Links

Times and Time Zones

All times are in EDT time to prevent confusion due to time zone crossing. See the UAL4295 flight status page for this flight to view local times or setup timezone preferences in your user account.

Time Position Orientation Groundspeed Altitude Reporting Facility
EDT Latitude Longitude Course Direction KTS MPH feet Rate Location/Type
06:49PM 43.0994 -77.6942 281° West 142 163 1,300  Level Cleveland Center
06:50PM 43.0581 -77.7269 210° Southwest 170 196 2,900 1,860 Climbing Cleveland Center
06:50PM 43.0433 -77.7458 223° Southwest 210 242 3,800 2,100 Climbing Cleveland Center
06:51PM 43.0469 -77.7947 276° West 210 242 5,100 1,800 Climbing Cleveland Center
06:52PM 43.0739 -77.8992 289° West 242 278 7,300 1,980 Climbing Cleveland Center
06:53PM 43.0958 -77.9931 288° West 256 295 9,300 1,500 Climbing Cleveland Center
06:54PM 43.1200 -78.0950 288° West 280 322 10,500 1,140 Climbing Cleveland Center
06:55PM 43.1929 -78.3835 281° West  Level FlightAware Approximate
06:55PM 43.1469 -78.2081 288° West 310 357 11,700  Level Cleveland Center
06:57PM 43.1742 -78.3258 288° West 321 369 13,200 1,500 Climbing Cleveland Center
06:58PM 43.2075 -78.4697 288° West 328 377 14,800 1,260 Climbing Cleveland Center
06:59PM 43.2028 -78.6008 267° West 342 394 15,900 960 Climbing Cleveland Center
07:00PM 43.1956 -78.7325 266° West 345 397 16,900 840 Climbing Cleveland Center
07:01PM 43.1878 -78.8656 265° West 350 403 17,700 720 Climbing Cleveland Center
07:02PM 43.1817 -79.0006 266° West 353 406 18,400 840 Climbing Cleveland Center
07:02PM 43.1744 -79.1111 265° West 361 415 19,100 1,080 Climbing Cleveland Center
07:03PM 43.1667 -79.2000 263° West 360 414 20,000 1,080 Climbing Toronto Center
07:04PM 43.1500 -79.3333 260° West 370 426 21,100 1,020 Climbing Toronto Center
07:05PM 43.1500 -79.4667 270° West 370 426 22,100 960 Climbing Toronto Center
07:06PM 43.1667 -79.6167 279° West 370 426 23,100 1,020 Climbing Toronto Center
07:07PM 43.1833 -79.7500 280° West 360 414 24,200 960 Climbing Toronto Center
07:08PM 43.2167 -79.8833 289° West 360 414 25,100 840 Climbing Toronto Center
07:09PM 43.2333 -80.0000 281° West 360 414 25,900 420 Climbing Toronto Center
07:10PM 43.2667 -80.1667 285° West 370 426 26,000  Climbing Toronto Center
07:11PM 43.2833 -80.3000 280° West 390 449 26,000  Level Toronto Center
07:12PM 43.3167 -80.4500 287° West 410 472 26,000 -60 Level Toronto Center
07:13PM 43.3333 -80.6167 278° West 420 483 25,900  Descending Toronto Center
07:14PM 43.3667 -80.7500 289° West 410 472 26,000  Climbing Toronto Center
07:15PM 43.3833 -80.9167 278° West 410 472 25,900 -60 Descending Toronto Center
07:16PM 43.3833 -81.0500 270° West 400 460 25,900  Level Toronto Center
07:17PM 43.4000 -81.2167 278° West 400 460 26,000 60 Climbing Toronto Center
07:18PM 43.4000 -81.3833 270° West 410 472 26,100  Climbing Toronto Center
07:19PM 43.4167 -81.5333 279° West 420 483 26,100 -60 Level Toronto Center
07:20PM 43.4000 -81.7000 262° West 420 483 26,000 -120 Descending Toronto Center
07:21PM 43.4000 -81.8667 270° West 420 483 25,900  Descending Toronto Center
07:22PM 43.3833 -82.0167 261° West 410 472 26,000 60 Climbing Toronto Center
07:23PM 43.3881 -82.1372 273° West 404 465 26,100  Climbing Cleveland Center
07:24PM 43.3544 -82.3103 255° West 397 457 26,000 -120 Descending Cleveland Center
07:25PM 43.3167 -82.4500 250° West 390 449 25,900  Descending Toronto Center
07:26PM 43.2833 -82.5833 251° West 390 449 26,000  Climbing Toronto Center
07:27PM 43.2681 -82.7456 263° West 402 463 26,000  Level Cleveland Center
07:28PM 43.2381 -82.8947 255° West 407 468 26,000  Level Cleveland Center
07:29PM 43.2092 -83.0453 255° West 409 471 26,000  Level Cleveland Center
07:30PM 43.1717 -83.2247 254° West 411 473 26,000 -60 Level Cleveland Center
07:31PM 43.1397 -83.3742 254° West 411 473 25,900  Descending Cleveland Center
07:32PM 43.1106 -83.5225 255° West 409 471 26,000  Climbing Cleveland Center
07:33PM 43.0792 -83.6708 254° West 408 470 26,000  Level Cleveland Center
07:34PM 43.0478 -83.8178 254° West 408 470 26,000  Level Cleveland Center
07:35PM 43.0161 -83.9653 254° West 408 470 26,100  Climbing Cleveland Center
07:36PM 42.9786 -84.1425 254° West 407 468 26,000 -60 Descending Cleveland Center
07:37PM 42.9469 -84.2889 254° West 407 468 26,000  Level Cleveland Center
07:38PM 42.9169 -84.4336 254° West 408 470 26,000  Level Cleveland Center
07:40PM 42.8847 -84.5794 253° West 405 466 26,000  Level Cleveland Center
07:41PM 42.8681 -84.7336 262° West 408 470 26,000  Level Cleveland Center
07:42PM 42.8519 -84.8850 262° West 408 470 26,000  Level Chicago Center
07:43PM 42.8336 -85.0667 262° West 407 468 26,000  Level Chicago Center
07:44PM 42.8172 -85.2194 262° West 405 466 26,000  Level Cleveland Center
07:45PM 42.8008 -85.3725 262° West 405 466 26,000  Level Cleveland Center
07:46PM 42.7819 -85.5250 260° West 406 467 26,000  Level Cleveland Center
07:47PM 42.7544 -85.6764 256° West 406 467 26,000 -120 Level Cleveland Center
07:48PM 42.7272 -85.8281 256° West 407 468 25,800 -1,140 Descending Cleveland Center
07:49PM 42.6992 -85.9792 256° West 407 468 23,700 -2,280 Descending Cleveland Center
07:50PM 42.6667 -86.1581 256° West 407 468 21,100 -1,800 Descending Chicago Center
07:51PM 42.6406 -86.3000 256° West 394 453 20,000 -720 Descending Chicago Center
07:52PM 42.6142 -86.4336 255° West 371 427 19,700 -1,020 Descending Chicago Center
07:53PM 42.5894 -86.5675 256° West 370 426 17,900 -1,860 Descending Chicago Center
07:54PM 42.5661 -86.6978 256° West 356 410 15,900 -1,980 Descending Chicago Center
07:55PM 42.5353 -86.8211 251° West 348 400 13,900 -1,800 Descending Chicago Center
07:56PM 42.5019 -86.9456 250° West 351 404 12,200 -1,800 Descending Chicago Center
07:57PM 42.4619 -87.0819 248° West 320 368 10,200 -1,500 Descending Chicago Center
07:58PM 42.4364 -87.1792 250° West 276 318 9,200 -720 Descending Chicago Center
08:00PM 42.3167 -87.2500 204° Southwest 281 323 8,200 -840 Descending Chicago TRACON
08:01PM 42.2233 -87.3081 205° Southwest 274 315 6,700 -1,140 Descending Chicago Center
08:02PM 42.1531 -87.3475 203° Southwest 274 315 5,600 -840 Descending Chicago Center
08:03PM 42.0842 -87.3833 201° Southwest 266 306 5,000 -360 Descending Chicago Center
08:04PM 42.0094 -87.4106 195° South 267 307 4,900  Descending Chicago Center
08:05PM 41.9844 -87.5017 250° West 262 302 5,000 -60 Climbing Chicago Center
08:06PM 41.9844 -87.6028 270° West 253 291 4,800 -780 Descending Chicago Center
08:07PM 41.9839 -87.6856 270° West 229 264 3,500 -1,260 Descending Chicago Center
08:08PM 41.9844 -87.7722 271° West 215 247 2,300 -960 Descending Chicago Center
08:10PM 41.9833 -87.8500 269° West 148 170 1,100 -720 Descending Chicago TRACON
08:11PM 41.9842 -87.8819 272° West 150 173 800 -600 Descending Chicago Center